Time;durP1;ratioP1;P1;durP2;ratioP2;P2;SDS_P1;SDS_P2;PMS_P1;PMS_P2;Temp;Humidity;BMP_temperature;BMP_pressure;BME280_temperature;BME280_humidity;BME280_pressure;Samples;Min_cycle;Max_cycle;Signal;HPM_P1;HPM_P2
2023/05/17 00:00:54;;;;;;;9.98;4.50;;;;;;;;;;5073025;28;20553;-63
2023/05/17 00:03:21;;;;;;;7.47;3.92;;;;;;;;;;5072825;28;20057;-64
2023/05/17 00:05:47;;;;;;;5.20;3.83;;;;;;;;;;5073255;28;20049;-64
2023/05/17 00:08:14;;;;;;;8.20;4.70;;;;;;;;;;5073315;28;20122;-64
2023/05/17 00:10:40;;;;;;;6.32;4.22;;;;;;;;;;5072905;28;20129;-64
2023/05/17 00:13:06;;;;;;;8.00;4.13;;;;;;;;;;5072731;28;20110;-63
2023/05/17 00:15:33;;;;;;;7.07;4.25;;;;;;;;;;5072805;28;20497;-63
2023/05/17 00:17:59;;;;;;;6.65;4.00;;;;;;;;;;5072762;28;20083;-63
2023/05/17 00:20:26;;;;;;;8.00;5.10;;;;;;;;;;5072700;28;20372;-63
2023/05/17 00:22:52;;;;;;;5.28;3.67;;;;;;;;;;5072687;28;20553;-64
2023/05/17 00:25:19;;;;;;;9.38;4.18;;;;;;;;;;5072664;28;20110;-63
2023/05/17 00:27:45;;;;;;;5.38;3.70;;;;;;;;;;5072523;28;20102;-64
2023/05/17 00:30:12;;;;;;;5.30;3.97;;;;;;;;;;5072747;28;20097;-64
2023/05/17 00:32:38;;;;;;;5.72;3.50;;;;;;;;;;5072638;28;20102;-64
2023/05/17 00:35:05;;;;;;;6.07;3.88;;;;;;;;;;5071793;28;20558;-64
2023/05/17 00:37:31;;;;;;;5.22;4.03;;;;;;;;;;5072421;28;20518;-63
2023/05/17 00:39:58;;;;;;;7.18;3.83;;;;;;;;;;5072302;28;20052;-63
2023/05/17 00:42:24;;;;;;;5.68;3.60;;;;;;;;;;5072231;28;20508;-64
2023/05/17 00:44:50;;;;;;;5.85;3.13;;;;;;;;;;5072567;28;20402;-64
2023/05/17 00:47:17;;;;;;;10.32;4.32;;;;;;;;;;5072408;28;20060;-63
2023/05/17 00:49:44;;;;;;;4.88;3.78;;;;;;;;;;5072260;28;20066;-63
2023/05/17 00:52:11;;;;;;;7.78;3.83;;;;;;;;;;5072336;28;20105;-63
2023/05/17 00:54:38;;;;;;;6.65;3.47;;;;;;;;;;5072026;28;20094;-63
2023/05/17 00:57:05;;;;;;;5.97;3.33;;;;;;;;;;5072321;28;20048;-63
2023/05/17 00:59:32;;;;;;;8.25;3.83;;;;;;;;;;5072210;28;20048;-64
2023/05/17 01:01:59;;;;;;;7.55;3.90;;;;;;;;;;5072215;28;20040;-63
2023/05/17 01:04:25;;;;;;;5.47;3.70;;;;;;;;;;5071289;28;20057;-63
2023/05/17 01:06:52;;;;;;;7.35;3.85;;;;;;;;;;5071075;28;20048;-63
2023/05/17 01:09:18;;;;;;;6.38;3.63;;;;;;;;;;5070118;28;20045;-63
2023/05/17 01:11:45;;;;;;;5.68;3.70;;;;;;;;;;5071324;28;20048;-63
2023/05/17 01:14:30;;;;;;;5.65;3.60;;;;;;;;;;5070908;28;20040;-64
2023/05/17 01:17:00;;;;;;;4.88;3.42;;;;;;;;;;5070975;28;20110;-64
2023/05/17 01:19:44;;;;;;;4.40;3.40;;;;;;;;;;5071334;28;20400;-64
2023/05/17 01:22:17;;;;;;;6.15;3.28;;;;;;;;;;5070913;28;20053;-64
2023/05/17 01:24:50;;;;;;;5.57;3.60;;;;;;;;;;5071014;28;20087;-63
2023/05/17 01:27:17;;;;;;;7.03;4.18;;;;;;;;;;5071180;28;20053;-63
2023/05/17 01:29:44;;;;;;;8.55;3.97;;;;;;;;;;5071057;28;20053;-64
2023/05/17 01:32:12;;;;;;;7.55;4.10;;;;;;;;;;5070925;28;20108;-63
2023/05/17 01:34:40;;;;;;;4.90;3.25;;;;;;;;;;5070998;28;20045;-63
2023/05/17 01:37:06;;;;;;;6.90;4.53;;;;;;;;;;5070698;28;20044;-64
2023/05/17 01:39:33;;;;;;;4.15;3.58;;;;;;;;;;5070638;28;20050;-64
2023/05/17 01:42:06;;;;;;;6.72;4.10;;;;;;;;;;5070843;28;20049;-64
2023/05/17 01:44:37;;;;;;;5.32;4.07;;;;;;;;;;5070095;28;20075;-64
2023/05/17 01:47:12;;;;;;;6.07;3.70;;;;;;;;;;5070223;28;20052;-63
2023/05/17 01:49:40;;;;;;;6.55;3.90;;;;;;;;;;5070802;28;20056;-63
2023/05/17 01:52:06;;;;;;;;;;;;;;;;;;5070982;28;20491;-64
2023/05/17 01:54:37;;;;;;;7.35;4.07;;;;;;;;;;5070557;28;20042;-64
2023/05/17 01:57:05;;;;;;;5.47;3.63;;;;;;;;;;5069282;28;20084;-64
2023/05/17 01:59:32;;;;;;;5.57;3.55;;;;;;;;;;5070689;28;20045;-63
2023/05/17 02:02:04;;;;;;;5.85;3.63;;;;;;;;;;5070683;28;20433;-63
2023/05/17 02:04:31;;;;;;;5.97;3.97;;;;;;;;;;5032014;28;1114304;-64
2023/05/17 02:06:58;;;;;;;6.72;3.85;;;;;;;;;;5071161;28;20057;-63
2023/05/17 02:09:24;;;;;;;6.65;4.72;;;;;;;;;;5071263;28;20052;-63
2023/05/17 02:11:50;;;;;;;6.47;4.05;;;;;;;;;;5071304;28;20057;-63
2023/05/17 02:14:17;;;;;;;7.03;4.00;;;;;;;;;;5071077;28;20071;-63
2023/05/17 02:16:43;;;;;;;5.97;3.92;;;;;;;;;;5071142;28;20775;-63
2023/05/17 02:19:11;;;;;;;4.55;3.67;;;;;;;;;;5071226;28;20072;-64
2023/05/17 02:21:38;;;;;;;6.45;4.43;;;;;;;;;;5064287;28;20060;-63
2023/05/17 02:24:04;;;;;;;8.02;3.92;;;;;;;;;;5070958;28;20091;-64
2023/05/17 02:26:31;;;;;;;5.70;3.75;;;;;;;;;;5071265;28;20045;-63
2023/05/17 02:28:57;;;;;;;5.85;3.70;;;;;;;;;;5069878;28;20094;-64
2023/05/17 02:31:25;;;;;;;5.20;3.63;;;;;;;;;;5071088;28;20500;-64
2023/05/17 02:33:55;;;;;;;6.95;4.18;;;;;;;;;;5071058;28;20045;-64
2023/05/17 02:36:21;;;;;;;4.75;3.90;;;;;;;;;;5070988;28;20055;-64
2023/05/17 02:38:48;;;;;;;7.55;4.25;;;;;;;;;;5070998;28;20121;-63
2023/05/17 02:41:14;;;;;;;5.78;4.53;;;;;;;;;;5071141;28;20052;-63
2023/05/17 02:43:41;;;;;;;5.80;4.07;;;;;;;;;;5071043;28;20052;-63
2023/05/17 02:46:07;;;;;;;5.85;4.18;;;;;;;;;;5071030;28;20056;-63
2023/05/17 02:48:34;;;;;;;6.55;3.90;;;;;;;;;;5070768;28;20087;-64
2023/05/17 02:51:01;;;;;;;4.68;3.85;;;;;;;;;;5071309;28;20138;-63
2023/05/17 02:53:27;;;;;;;9.25;4.10;;;;;;;;;;5070711;28;20098;-63
2023/05/17 02:55:56;;;;;;;8.38;4.40;;;;;;;;;;5070719;28;20088;-63
2023/05/17 02:58:23;;;;;;;5.63;4.10;;;;;;;;;;5074145;28;20044;-63
2023/05/17 03:00:50;;;;;;;7.40;3.97;;;;;;;;;;5074412;28;20044;-63
2023/05/17 03:03:17;;;;;;;4.85;3.70;;;;;;;;;;5074260;28;20048;-64
2023/05/17 03:05:43;;;;;;;5.95;3.72;;;;;;;;;;5073983;28;20565;-64
2023/05/17 03:08:10;;;;;;;7.47;4.05;;;;;;;;;;5074456;28;20080;-64
2023/05/17 03:10:36;;;;;;;7.72;3.92;;;;;;;;;;5074361;28;20102;-63
2023/05/17 03:13:02;;;;;;;5.38;3.40;;;;;;;;;;5074172;28;20052;-63
2023/05/17 03:15:29;;;;;;;5.75;4.15;;;;;;;;;;5074340;28;20525;-63
2023/05/17 03:17:56;;;;;;;5.37;3.73;;;;;;;;;;5074227;28;20048;-63
2023/05/17 03:20:23;;;;;;;4.93;3.53;;;;;;;;;;5074200;28;20350;-63
2023/05/17 03:22:49;;;;;;;6.68;4.25;;;;;;;;;;5074060;28;20048;-63
2023/05/17 03:25:15;;;;;;;5.07;3.70;;;;;;;;;;5074184;28;20056;-64
2023/05/17 03:27:42;;;;;;;4.68;3.88;;;;;;;;;;5074029;28;20188;-64
2023/05/17 03:30:08;;;;;;;5.82;3.92;;;;;;;;;;5073656;28;20041;-63
2023/05/17 03:32:37;;;;;;;5.68;3.85;;;;;;;;;;5073592;28;20048;-64
2023/05/17 03:35:04;;;;;;;4.85;3.55;;;;;;;;;;5073860;28;20071;-63
2023/05/17 03:37:30;;;;;;;6.35;3.63;;;;;;;;;;5073937;28;20045;-63
2023/05/17 03:39:56;;;;;;;5.28;3.97;;;;;;;;;;5073790;28;20045;-63
2023/05/17 03:42:23;;;;;;;6.28;4.10;;;;;;;;;;5073821;28;20040;-63
2023/05/17 03:44:50;;;;;;;4.70;3.80;;;;;;;;;;5073486;28;20102;-63
2023/05/17 03:47:17;;;;;;;4.87;3.73;;;;;;;;;;5073794;28;20048;-63
2023/05/17 03:49:43;;;;;;;7.53;4.05;;;;;;;;;;5073377;28;20491;-63
2023/05/17 03:52:09;;;;;;;4.72;3.50;;;;;;;;;;5073584;28;20049;-63
2023/05/17 03:54:36;;;;;;;7.72;4.32;;;;;;;;;;5073478;28;20053;-64
2023/05/17 03:57:02;;;;;;;6.38;3.85;;;;;;;;;;5073353;28;20403;-64
2023/05/17 03:59:29;;;;;;;7.40;4.15;;;;;;;;;;5073173;28;20040;-63
2023/05/17 04:01:55;;;;;;;7.22;4.25;;;;;;;;;;5073377;28;20373;-64
2023/05/17 04:04:22;;;;;;;7.43;4.53;;;;;;;;;;5072842;28;20048;-63
2023/05/17 04:06:48;;;;;;;6.75;4.28;;;;;;;;;;5073232;28;20064;-63
2023/05/17 04:09:15;;;;;;;9.10;4.45;;;;;;;;;;5072355;28;20049;-63
2023/05/17 04:11:42;;;;;;;5.38;3.95;;;;;;;;;;5073075;28;20052;-63
2023/05/17 04:14:08;;;;;;;5.25;3.92;;;;;;;;;;5072817;28;20075;-63
2023/05/17 04:16:35;;;;;;;5.65;4.22;;;;;;;;;;5072833;28;20117;-63
2023/05/17 04:19:01;;;;;;;5.03;4.05;;;;;;;;;;5073008;28;20182;-63
2023/05/17 04:21:30;;;;;;;8.05;4.68;;;;;;;;;;5072816;28;20045;-63
2023/05/17 04:23:56;;;;;;;5.90;4.47;;;;;;;;;;5072643;28;20091;-63
2023/05/17 04:26:24;;;;;;;6.63;4.15;;;;;;;;;;5072713;28;20066;-63
2023/05/17 04:28:51;;;;;;;6.20;4.22;;;;;;;;;;5072587;28;20151;-63
2023/05/17 04:31:17;;;;;;;6.00;3.97;;;;;;;;;;5072930;28;20064;-63
2023/05/17 04:33:44;;;;;;;5.30;3.83;;;;;;;;;;5072474;28;20488;-63
2023/05/17 04:36:11;;;;;;;6.70;3.60;;;;;;;;;;5072401;28;20049;-64
2023/05/17 04:38:37;;;;;;;4.93;3.75;;;;;;;;;;5072576;28;20052;-63
2023/05/17 04:41:04;;;;;;;5.43;3.63;;;;;;;;;;5072605;28;20044;-63
2023/05/17 04:43:31;;;;;;;5.35;4.10;;;;;;;;;;5072253;28;20461;-63
2023/05/17 04:45:58;;;;;;;5.85;3.90;;;;;;;;;;5072528;28;20133;-63
2023/05/17 04:48:27;;;;;;;7.60;4.07;;;;;;;;;;5072434;28;20049;-64
2023/05/17 04:50:54;;;;;;;8.35;3.67;;;;;;;;;;5072200;28;20052;-63
2023/05/17 04:53:20;;;;;;;8.02;3.78;;;;;;;;;;5072096;28;20080;-63
2023/05/17 04:55:49;;;;;;;4.55;3.70;;;;;;;;;;5072078;28;20049;-63
2023/05/17 04:58:16;;;;;;;5.85;4.20;;;;;;;;;;5072069;28;20045;-63
2023/05/17 05:00:42;;;;;;;6.22;4.28;;;;;;;;;;5072314;28;20430;-63
2023/05/17 05:03:08;;;;;;;5.88;3.95;;;;;;;;;;5071991;28;20500;-63
2023/05/17 05:05:35;;;;;;;6.15;4.28;;;;;;;;;;5071610;28;20056;-63
2023/05/17 05:08:01;;;;;;;7.85;4.05;;;;;;;;;;5071992;28;20048;-63
2023/05/17 05:10:28;;;;;;;6.80;4.10;;;;;;;;;;5061956;28;20059;-63
2023/05/17 05:12:54;;;;;;;7.43;4.15;;;;;;;;;;5067481;28;20055;-63
2023/05/17 05:15:21;;;;;;;9.60;4.50;;;;;;;;;;5072023;28;20098;-64
2023/05/17 05:17:47;;;;;;;8.82;4.10;;;;;;;;;;5072039;28;20189;-63
2023/05/17 05:20:14;;;;;;;5.80;3.60;;;;;;;;;;5071566;28;20127;-64
2023/05/17 05:22:40;;;;;;;6.30;4.03;;;;;;;;;;5071754;28;20480;-64
2023/05/17 05:25:07;;;;;;;6.05;4.10;;;;;;;;;;5071722;28;20084;-63
2023/05/17 05:27:37;;;;;;;5.97;3.90;;;;;;;;;;5071670;28;20106;-63
2023/05/17 05:30:03;;;;;;;8.38;4.45;;;;;;;;;;5071777;28;20084;-64
2023/05/17 05:32:30;;;;;;;4.60;3.90;;;;;;;;;;5071973;28;20101;-63
2023/05/17 05:34:56;;;;;;;8.45;4.70;;;;;;;;;;5071437;28;20041;-64
2023/05/17 05:37:23;;;;;;;7.00;4.68;;;;;;;;;;5071933;28;20049;-64
2023/05/17 05:39:49;;;;;;;5.05;4.40;;;;;;;;;;5071598;28;20186;-64
2023/05/17 05:42:16;;;;;;;5.93;4.35;;;;;;;;;;5071480;28;20105;-63
2023/05/17 05:44:42;;;;;;;7.35;4.13;;;;;;;;;;5071412;28;20049;-63
2023/05/17 05:47:09;;;;;;;7.68;4.63;;;;;;;;;;5071827;28;20052;-64
2023/05/17 05:49:35;;;;;;;6.15;4.38;;;;;;;;;;5071594;28;20088;-64
2023/05/17 05:52:02;;;;;;;7.07;3.97;;;;;;;;;;5053231;28;20090;-64
2023/05/17 05:54:28;;;;;;;7.90;4.10;;;;;;;;;;5051549;28;20396;-64
2023/05/17 05:56:55;;;;;;;8.60;4.85;;;;;;;;;;5051250;28;20475;-64
2023/05/17 05:59:21;;;;;;;6.18;4.45;;;;;;;;;;5051578;28;20048;-64
2023/05/17 06:01:48;;;;;;;5.75;4.07;;;;;;;;;;5051520;28;20099;-64
2023/05/17 06:04:14;;;;;;;6.90;4.35;;;;;;;;;;5051218;28;20119;-64
2023/05/17 06:06:40;;;;;;;6.00;3.95;;;;;;;;;;5051184;28;20468;-64
2023/05/17 06:09:10;;;;;;;7.38;4.55;;;;;;;;;;5051518;28;20052;-63
2023/05/17 06:11:38;;;;;;;6.10;4.00;;;;;;;;;;5057640;28;20057;-64
2023/05/17 06:14:04;;;;;;;6.18;4.53;;;;;;;;;;5071443;28;20052;-64
2023/05/17 06:16:30;;;;;;;8.18;5.18;;;;;;;;;;5071307;28;20044;-63
2023/05/17 06:18:57;;;;;;;7.95;4.68;;;;;;;;;;5071167;28;20044;-63
2023/05/17 06:21:24;;;;;;;7.68;5.32;;;;;;;;;;5071206;28;20048;-64
2023/05/17 06:23:51;;;;;;;9.07;5.83;;;;;;;;;;5071401;28;20384;-63
2023/05/17 06:26:17;;;;;;;5.73;4.90;;;;;;;;;;5052927;28;20088;-64
2023/05/17 06:28:44;;;;;;;8.32;5.40;;;;;;;;;;5061564;28;20122;-63
2023/05/17 06:31:10;;;;;;;6.95;5.25;;;;;;;;;;5071101;28;20118;-64
2023/05/17 06:33:36;;;;;;;7.32;5.10;;;;;;;;;;5072594;28;20573;-65
2023/05/17 06:36:03;;;;;;;6.68;4.85;;;;;;;;;;5054871;28;20044;-64
2023/05/17 06:38:30;;;;;;;6.85;4.65;;;;;;;;;;5067842;28;20144;-66
2023/05/17 06:40:57;;;;;;;10.45;5.32;;;;;;;;;;5062434;28;20108;-66
2023/05/17 06:43:23;;;;;;;5.95;5.00;;;;;;;;;;5056175;28;20094;-65
2023/05/17 06:45:50;;;;;;;7.10;4.68;;;;;;;;;;5065814;28;20052;-64
2023/05/17 06:48:16;;;;;;;8.32;4.97;;;;;;;;;;5071249;28;20106;-63
2023/05/17 06:50:43;;;;;;;8.60;4.75;;;;;;;;;;5062685;28;20052;-64
2023/05/17 06:53:09;;;;;;;8.82;4.45;;;;;;;;;;5071603;28;20048;-64
2023/05/17 06:55:36;;;;;;;10.85;5.30;;;;;;;;;;5072628;28;20048;-64
2023/05/17 06:58:02;;;;;;;6.75;4.35;;;;;;;;;;5073434;28;20052;-64
2023/05/17 07:00:29;;;;;;;8.70;4.90;;;;;;;;;;5073745;28;20098;-65
2023/05/17 07:02:56;;;;;;;7.32;3.85;;;;;;;;;;5073912;28;20044;-64
2023/05/17 07:05:23;;;;;;;9.13;4.30;;;;;;;;;;5073764;28;20557;-65
2023/05/17 07:07:49;;;;;;;8.33;4.30;;;;;;;;;;5074559;28;20052;-64
2023/05/17 07:10:16;;;;;;;6.53;4.47;;;;;;;;;;5074398;28;20060;-64
2023/05/17 07:12:42;;;;;;;8.00;4.00;;;;;;;;;;5074395;28;20052;-65
2023/05/17 07:15:09;;;;;;;5.65;3.45;;;;;;;;;;5074050;28;20408;-64
2023/05/17 07:17:35;;;;;;;7.67;3.47;;;;;;;;;;5074074;28;20053;-64
2023/05/17 07:20:02;;;;;;;7.63;3.20;;;;;;;;;;5074148;28;20408;-64
2023/05/17 07:22:28;;;;;;;5.53;3.10;;;;;;;;;;5074250;28;20041;-64
2023/05/17 07:24:55;;;;;;;5.35;3.50;;;;;;;;;;5073986;28;20546;-64
2023/05/17 07:27:21;;;;;;;7.13;3.38;;;;;;;;;;5074164;28;20052;-64
2023/05/17 07:29:48;;;;;;;5.97;2.97;;;;;;;;;;5073896;28;20449;-64
2023/05/17 07:32:15;;;;;;;5.95;3.70;;;;;;;;;;5073920;28;20087;-65
2023/05/17 07:34:42;;;;;;;8.65;3.80;;;;;;;;;;5072940;28;20098;-64
2023/05/17 07:37:08;;;;;;;4.73;3.00;;;;;;;;;;5073750;28;20491;-65
2023/05/17 07:39:35;;;;;;;4.35;2.75;;;;;;;;;;5073796;28;20094;-64
2023/05/17 07:42:01;;;;;;;5.85;2.63;;;;;;;;;;5073522;28;20181;-64
2023/05/17 07:44:30;;;;;;;5.55;2.30;;;;;;;;;;5073453;28;20139;-64
2023/05/17 07:46:57;;;;;;;5.38;2.85;;;;;;;;;;5073411;28;20052;-64
2023/05/17 07:49:23;;;;;;;5.05;2.78;;;;;;;;;;5073504;28;20052;-65
2023/05/17 07:51:53;;;;;;;4.28;2.28;;;;;;;;;;5073338;28;20495;-64
2023/05/17 07:54:26;;;;;;;5.95;2.70;;;;;;;;;;5073336;28;20040;-64
2023/05/17 07:56:54;;;;;;;10.35;2.90;;;;;;;;;;5073311;28;20044;-64
2023/05/17 07:59:23;;;;;;;4.68;2.50;;;;;;;;;;5073290;28;20045;-64
2023/05/17 08:01:50;;;;;;;5.07;2.72;;;;;;;;;;5073045;28;20044;-64
2023/05/17 08:04:18;;;;;;;4.57;1.88;;;;;;;;;;5073041;28;20408;-64
2023/05/17 08:06:45;;;;;;;5.28;2.78;;;;;;;;;;5073320;28;20076;-64
2023/05/17 08:09:12;;;;;;;4.55;2.65;;;;;;;;;;5073237;28;20048;-64
2023/05/17 08:11:44;;;;;;;4.85;2.17;;;;;;;;;;5073056;28;20055;-64
2023/05/17 08:14:14;;;;;;;6.57;2.72;;;;;;;;;;5072854;28;20116;-64
2023/05/17 08:16:41;;;;;;;4.45;2.30;;;;;;;;;;5072897;28;20101;-65
2023/05/17 08:19:11;;;;;;;3.53;2.00;;;;;;;;;;5073122;28;20446;-64
2023/05/17 08:21:38;;;;;;;5.45;1.80;;;;;;;;;;5072683;28;20048;-64
2023/05/17 08:24:05;;;;;;;4.18;1.98;;;;;;;;;;5073091;28;20048;-65
2023/05/17 08:26:32;;;;;;;5.97;2.07;;;;;;;;;;5072828;28;20040;-64
2023/05/17 08:28:58;;;;;;;5.63;2.13;;;;;;;;;;5072844;28;20098;-64
2023/05/17 08:31:24;;;;;;;3.00;2.20;;;;;;;;;;5072588;28;20488;-64
2023/05/17 08:33:51;;;;;;;3.25;2.05;;;;;;;;;;5072990;28;20113;-64
2023/05/17 08:36:17;;;;;;;3.60;2.25;;;;;;;;;;5072477;28;20476;-64
2023/05/17 08:38:43;;;;;;;7.22;2.55;;;;;;;;;;5072576;28;20040;-64
2023/05/17 08:41:11;;;;;;;6.00;2.47;;;;;;;;;;5072771;28;20113;-64
2023/05/17 08:43:38;;;;;;;6.32;2.60;;;;;;;;;;5072286;28;20098;-64
2023/05/17 08:46:04;;;;;;;6.35;3.00;;;;;;;;;;5072400;28;20561;-64
2023/05/17 08:48:35;;;;;;;5.43;2.60;;;;;;;;;;5072486;28;20105;-64
2023/05/17 08:51:02;;;;;;;4.95;2.67;;;;;;;;;;5072581;28;20049;-64
2023/05/17 08:53:28;;;;;;;5.53;3.05;;;;;;;;;;5072255;28;20056;-65
2023/05/17 08:55:59;;;;;;;11.30;4.65;;;;;;;;;;5071866;28;20102;-64
2023/05/17 08:58:28;;;;;;;11.80;5.80;;;;;;;;;;5072335;28;20054;-64
2023/05/17 09:00:57;;;;;;;7.18;3.50;;;;;;;;;;5072557;28;20128;-64
2023/05/17 09:03:24;;;;;;;6.88;3.25;;;;;;;;;;5071772;28;20052;-65
2023/05/17 09:05:52;;;;;;;6.30;3.30;;;;;;;;;;5071913;28;20048;-64
2023/05/17 09:08:20;;;;;;;5.22;3.20;;;;;;;;;;5072299;28;20407;-64
2023/05/17 09:10:46;;;;;;;5.70;3.35;;;;;;;;;;5070909;28;20118;-65
2023/05/17 09:13:13;;;;;;;6.28;3.42;;;;;;;;;;5071974;28;20048;-65
2023/05/17 09:15:46;;;;;;;5.17;3.20;;;;;;;;;;5072110;28;20044;-64
2023/05/17 09:18:13;;;;;;;7.78;3.05;;;;;;;;;;5072227;28;20041;-65
2023/05/17 09:20:48;;;;;;;4.70;3.10;;;;;;;;;;5071819;28;20055;-64
2023/05/17 09:23:19;;;;;;;5.22;3.38;;;;;;;;;;5072198;28;20068;-64
2023/05/17 09:25:47;;;;;;;6.10;3.10;;;;;;;;;;5071993;28;20053;-64
2023/05/17 09:28:13;;;;;;;5.93;3.28;;;;;;;;;;5071800;28;20060;-65
2023/05/17 09:30:41;;;;;;;3.95;2.50;;;;;;;;;;5071943;28;20465;-65
2023/05/17 09:33:08;;;;;;;4.65;2.50;;;;;;;;;;5071947;28;20159;-65
2023/05/17 09:35:35;;;;;;;4.60;2.45;;;;;;;;;;5071839;28;20048;-65
2023/05/17 09:38:01;;;;;;;;;;;;;;;;;;5071992;28;20056;-64
2023/05/17 09:40:28;;;;;;;3.75;2.50;;;;;;;;;;5071608;28;19948;-66
2023/05/17 09:42:54;;;;;;;5.20;2.47;;;;;;;;;;5071544;28;20492;-65
2023/05/17 09:45:23;;;;;;;4.40;2.58;;;;;;;;;;5071623;28;20117;-65
2023/05/17 09:47:51;;;;;;;4.20;2.67;;;;;;;;;;5071534;28;20053;-65
2023/05/17 09:50:18;;;;;;;4.45;2.40;;;;;;;;;;5071747;28;20071;-65
2023/05/17 09:52:45;;;;;;;4.50;2.45;;;;;;;;;;5071502;28;20519;-65
2023/05/17 09:55:12;;;;;;;3.17;2.30;;;;;;;;;;5071510;28;20102;-65
2023/05/17 09:57:39;;;;;;;3.03;2.35;;;;;;;;;;5071762;28;20519;-64
2023/05/17 10:00:12;;;;;;;5.25;2.55;;;;;;;;;;5071671;28;20048;-64
2023/05/17 10:02:40;;;;;;;3.83;1.80;;;;;;;;;;5071636;28;20048;-64
2023/05/17 10:05:11;;;;;;;4.32;2.00;;;;;;;;;;5070988;28;20504;-65
2023/05/17 10:07:37;;;;;;;3.05;1.48;;;;;;;;;;5074101;28;20072;-64
2023/05/17 10:10:05;;;;;;;2.75;1.60;;;;;;;;;;5075720;28;20049;-65
2023/05/17 10:12:33;;;;;;;3.05;2.08;;;;;;;;;;5075299;28;20499;-65
2023/05/17 10:15:00;;;;;;;2.72;1.73;;;;;;;;;;5075414;28;20053;-64
2023/05/17 10:17:29;;;;;;;4.03;2.67;;;;;;;;;;5061331;28;20040;-65
2023/05/17 10:19:56;;;;;;;2.67;2.20;;;;;;;;;;5075385;28;20135;-65
2023/05/17 10:22:23;;;;;;;3.45;1.55;;;;;;;;;;5075451;28;20083;-65
2023/05/17 10:24:50;;;;;;;2.58;1.77;;;;;;;;;;5075259;28;20097;-65
2023/05/17 10:27:17;;;;;;;4.03;1.55;;;;;;;;;;5075074;28;20412;-64
2023/05/17 10:29:44;;;;;;;2.15;1.70;;;;;;;;;;5074882;28;20488;-65
2023/05/17 10:32:16;;;;;;;2.35;1.75;;;;;;;;;;5075045;28;20481;-65
2023/05/17 10:34:42;;;;;;;2.35;1.70;;;;;;;;;;5075033;28;20102;-65
2023/05/17 10:37:12;;;;;;;3.42;1.90;;;;;;;;;;5074986;28;20054;-65
2023/05/17 10:39:42;;;;;;;2.05;1.50;;;;;;;;;;5074825;28;20061;-65
2023/05/17 10:42:09;;;;;;;2.35;1.90;;;;;;;;;;5073793;28;20601;-65
2023/05/17 10:44:40;;;;;;;3.22;1.55;;;;;;;;;;5074981;28;20053;-65
2023/05/17 10:47:07;;;;;;;3.17;1.75;;;;;;;;;;5075017;28;20055;-65
2023/05/17 10:49:34;;;;;;;;;;;;;;;;;;5075221;28;20048;-65
2023/05/17 10:52:17;;;;;;;2.97;2.08;;;;;;;;;;5074579;28;19924;-65
2023/05/17 10:54:46;;;;;;;3.22;2.20;;;;;;;;;;5074622;28;20095;-65
2023/05/17 10:57:17;;;;;;;3.55;1.80;;;;;;;;;;5074754;28;20040;-65
2023/05/17 11:00:00;;;;;;;4.45;1.80;;;;;;;;;;5074768;28;20044;-64
2023/05/17 11:02:27;;;;;;;4.03;2.10;;;;;;;;;;5074406;28;20538;-65
2023/05/17 11:04:56;;;;;;;3.13;1.77;;;;;;;;;;5074051;28;20067;-65
2023/05/17 11:07:25;;;;;;;4.18;1.95;;;;;;;;;;5074296;28;20047;-65
2023/05/17 11:10:09;;;;;;;3.22;1.88;;;;;;;;;;5074467;28;20442;-64
2023/05/17 11:12:36;;;;;;;3.20;2.05;;;;;;;;;;5074573;28;20189;-65
2023/05/17 11:15:15;;;;;;;3.83;1.77;;;;;;;;;;5074183;28;20052;-64
2023/05/17 11:17:42;;;;;;;2.97;1.95;;;;;;;;;;5074225;28;20050;-64
2023/05/17 11:20:15;;;;;;;3.30;1.60;;;;;;;;;;5074438;28;20048;-65
2023/05/17 11:23:04;;;;;;;2.55;1.70;;;;;;;;;;5074427;28;20147;-65
2023/05/17 11:25:31;;;;;;;2.30;1.67;;;;;;;;;;5074008;28;20052;-63
2023/05/17 11:27:58;;;;;;;4.45;1.83;;;;;;;;;;5073770;28;20499;-63
2023/05/17 11:30:27;;;;;;;3.83;2.13;;;;;;;;;;5073961;28;20071;-63
2023/05/17 11:33:01;;;;;;;2.10;1.83;;;;;;;;;;5074029;28;20076;-63
2023/05/17 11:35:30;;;;;;;2.85;2.05;;;;;;;;;;5073650;28;20481;-62
2023/05/17 11:38:13;;;;;;;2.70;2.00;;;;;;;;;;5073932;28;20438;-63
2023/05/17 11:40:40;;;;;;;2.47;2.10;;;;;;;;;;5073539;28;20052;-63
2023/05/17 11:43:10;;;;;;;2.65;1.90;;;;;;;;;;5073562;28;20055;-63
2023/05/17 11:45:41;;;;;;;3.22;2.20;;;;;;;;;;5073740;28;20048;-62
2023/05/17 11:48:07;;;;;;;3.03;1.90;;;;;;;;;;5073750;28;20052;-63
2023/05/17 11:50:35;;;;;;;3.22;1.75;;;;;;;;;;5073502;28;20087;-63
2023/05/17 11:53:04;;;;;;;4.03;2.10;;;;;;;;;;5073647;28;20075;-63
2023/05/17 11:55:30;;;;;;;2.90;1.95;;;;;;;;;;5073434;28;20044;-63
2023/05/17 11:57:57;;;;;;;2.47;2.10;;;;;;;;;;5073273;28;20045;-63
2023/05/17 12:00:27;;;;;;;3.17;2.15;;;;;;;;;;5073211;28;20040;-63
2023/05/17 12:02:54;;;;;;;3.25;2.15;;;;;;;;;;5073567;28;20437;-63
2023/05/17 12:05:21;;;;;;;;;;;;;;;;;;5073285;28;20060;-63
2023/05/17 12:07:51;;;;;;;3.15;2.28;;;;;;;;;;5073146;28;20338;-63
2023/05/17 12:10:17;;;;;;;2.50;2.30;;;;;;;;;;5073265;28;20048;-62
2023/05/17 12:12:44;;;;;;;3.33;2.42;;;;;;;;;;5073031;28;20131;-62
2023/05/17 12:15:18;;;;;;;2.72;2.28;;;;;;;;;;5072883;28;20083;-63
2023/05/17 12:17:45;;;;;;;3.10;2.15;;;;;;;;;;5072904;28;20051;-63
2023/05/17 12:20:14;;;;;;;3.05;1.90;;;;;;;;;;5072799;28;20049;-62
2023/05/17 12:22:56;;;;;;;2.45;2.00;;;;;;;;;;5072910;28;20068;-62
2023/05/17 12:25:24;;;;;;;2.47;2.28;;;;;;;;;;5073028;28;20044;-63
2023/05/17 12:27:51;;;;;;;4.20;2.40;;;;;;;;;;5072584;28;20067;-63
2023/05/17 12:30:17;;;;;;;3.75;1.90;;;;;;;;;;5071849;28;20053;-63
2023/05/17 12:32:44;;;;;;;3.08;2.15;;;;;;;;;;5072565;28;20049;-63
2023/05/17 12:35:11;;;;;;;2.03;1.92;;;;;;;;;;5072526;28;20048;-63
2023/05/17 12:37:38;;;;;;;3.42;2.20;;;;;;;;;;5072719;28;20052;-63
2023/05/17 12:40:05;;;;;;;3.53;1.88;;;;;;;;;;5072562;28;20068;-63
2023/05/17 12:42:31;;;;;;;2.22;2.00;;;;;;;;;;5072417;28;20461;-63
2023/05/17 12:44:58;;;;;;;1.90;1.70;;;;;;;;;;5072556;28;20068;-63
2023/05/17 12:47:29;;;;;;;2.47;1.60;;;;;;;;;;5072617;28;20129;-64
2023/05/17 12:49:58;;;;;;;2.22;1.75;;;;;;;;;;5072429;28;20099;-63
2023/05/17 12:52:25;;;;;;;2.33;1.80;;;;;;;;;;5072409;28;20048;-63
2023/05/17 12:54:51;;;;;;;2.47;1.70;;;;;;;;;;5072124;28;20139;-63
2023/05/17 12:57:18;;;;;;;2.53;2.13;;;;;;;;;;5072401;28;20464;-64
2023/05/17 12:59:49;;;;;;;2.10;1.90;;;;;;;;;;5072082;28;20048;-63
2023/05/17 13:02:16;;;;;;;2.65;1.90;;;;;;;;;;5072022;28;20098;-63
2023/05/17 13:04:42;;;;;;;3.13;2.30;;;;;;;;;;5071865;28;20522;-63
2023/05/17 13:07:09;;;;;;;2.67;2.10;;;;;;;;;;5072297;28;20438;-63
2023/05/17 13:09:35;;;;;;;;;;;;;;;;;;5072481;28;20098;-63
2023/05/17 13:12:08;;;;;;;2.50;2.13;;;;;;;;;;5071819;28;20336;-63
2023/05/17 13:14:35;;;;;;;3.30;2.20;;;;;;;;;;5071903;28;20045;-63
2023/05/17 13:17:05;;;;;;;3.08;2.17;;;;;;;;;;5071880;28;20048;-63
2023/05/17 13:19:32;;;;;;;2.58;2.13;;;;;;;;;;5072159;28;20041;-63
2023/05/17 13:21:58;;;;;;;2.05;1.90;;;;;;;;;;5072071;28;20446;-63
2023/05/17 13:24:25;;;;;;;2.10;1.90;;;;;;;;;;5072044;28;20043;-63
2023/05/17 13:26:52;;;;;;;2.30;2.10;;;;;;;;;;5071979;28;20102;-63
2023/05/17 13:29:19;;;;;;;2.45;2.25;;;;;;;;;;5071814;28;20048;-63
2023/05/17 13:32:00;;;;;;;3.03;2.10;;;;;;;;;;5071753;28;20135;-63
2023/05/17 13:34:27;;;;;;;;;;;;;;;;;;5072318;28;20102;-63
2023/05/17 13:36:55;;;;;;;2.42;2.22;;;;;;;;;;5071522;28;20326;-63
2023/05/17 13:39:22;;;;;;;3.45;2.55;;;;;;;;;;5071831;28;20052;-62
2023/05/17 13:41:49;;;;;;;2.67;2.20;;;;;;;;;;5071564;28;20067;-63
2023/05/17 13:44:15;;;;;;;2.63;2.42;;;;;;;;;;5071867;28;20045;-63
2023/05/17 13:46:41;;;;;;;2.80;2.60;;;;;;;;;;5071779;28;20048;-63
2023/05/17 13:49:08;;;;;;;2.80;2.60;;;;;;;;;;5071478;28;20086;-63
2023/05/17 13:51:36;;;;;;;;;;;;;;;;;;5072262;28;20052;-63
2023/05/17 13:54:03;;;;;;;3.13;2.63;;;;;;;;;;5071727;28;19924;-63
2023/05/17 13:56:30;;;;;;;3.35;2.90;;;;;;;;;;5071552;28;20056;-63
2023/05/17 13:58:57;;;;;;;4.55;2.53;;;;;;;;;;5071359;28;20484;-63
2023/05/17 14:01:23;;;;;;;;;;;;;;;;;;5072233;28;20105;-63
2023/05/17 14:03:50;;;;;;;;;;;;;;;;;;5071509;28;19967;-62
2023/05/17 14:06:16;;;;;;;3.80;2.63;;;;;;;;;;5071315;28;20372;-63
2023/05/17 14:08:44;;;;;;;3.50;2.55;;;;;;;;;;5071229;28;20077;-63
2023/05/17 14:11:11;;;;;;;2.58;2.33;;;;;;;;;;5071285;28;20068;-63
2023/05/17 14:13:37;;;;;;;3.28;2.53;;;;;;;;;;5071344;28;20049;-63
2023/05/17 14:16:04;;;;;;;2.72;2.53;;;;;;;;;;5071461;28;20123;-62
2023/05/17 14:18:31;;;;;;;2.80;2.30;;;;;;;;;;5071489;28;20404;-62
2023/05/17 14:20:58;;;;;;;3.55;2.90;;;;;;;;;;5071038;28;20510;-63
2023/05/17 14:23:24;;;;;;;3.67;2.70;;;;;;;;;;5071400;28;20044;-62
2023/05/17 14:25:51;;;;;;;2.70;2.35;;;;;;;;;;5071371;28;20056;-63
2023/05/17 14:28:17;;;;;;;3.13;2.83;;;;;;;;;;5071158;28;20569;-63
2023/05/17 14:30:44;;;;;;;3.72;2.40;;;;;;;;;;5071060;28;20110;-62
2023/05/17 14:33:10;;;;;;;3.38;3.08;;;;;;;;;;5071049;28;20480;-62
2023/05/17 14:35:37;;;;;;;3.60;2.75;;;;;;;;;;5071208;28;20135;-62
2023/05/17 14:38:04;;;;;;;3.45;2.97;;;;;;;;;;5070977;28;20052;-63
2023/05/17 14:40:30;;;;;;;3.58;2.70;;;;;;;;;;5071043;28;20045;-63
2023/05/17 14:42:57;;;;;;;3.25;2.90;;;;;;;;;;5070951;28;20059;-63
2023/05/17 14:45:23;;;;;;;4.15;2.72;;;;;;;;;;5071265;28;20040;-62
2023/05/17 14:47:50;;;;;;;2.63;2.33;;;;;;;;;;5070881;28;20052;-62